createdAt,value
2022-10-18T00:02:58.642Z,99.90
2022-10-18T00:06:02.588Z,99.90
2022-10-18T00:09:07.130Z,99.90
2022-10-18T00:12:10.265Z,99.90
2022-10-18T00:15:13.498Z,99.90
2022-10-18T00:18:16.621Z,99.90
2022-10-18T00:21:21.468Z,99.90
2022-10-18T00:24:25.966Z,99.90
2022-10-18T00:27:30.580Z,99.90
2022-10-18T00:30:33.739Z,99.90
2022-10-18T00:33:36.808Z,99.90
2022-10-18T00:36:40.598Z,99.90
2022-10-18T00:39:45.268Z,99.90
2022-10-18T00:42:48.421Z,99.90
2022-10-18T00:45:51.534Z,99.90
2022-10-18T00:48:56.838Z,99.90
2022-10-18T00:52:02.398Z,99.90
2022-10-18T00:55:08.526Z,99.90
2022-10-18T00:58:14.294Z,99.90
2022-10-18T01:01:17.595Z,99.90
2022-10-18T01:04:23.215Z,99.90
2022-10-18T01:07:39.029Z,99.90
2022-10-18T01:10:50.987Z,99.90
2022-10-18T01:14:07.005Z,99.90
2022-10-18T01:17:15.232Z,99.90
2022-10-18T01:20:36.994Z,99.90
2022-10-18T01:24:08.984Z,99.90
2022-10-18T01:27:44.133Z,99.90
2022-10-18T01:30:55.899Z,99.90
2022-10-18T01:37:10.409Z,99.90
2022-10-18T01:40:15.598Z,99.90
2022-10-18T01:43:21.044Z,99.90
2022-10-18T01:46:26.994Z,99.90
2022-10-18T01:49:30.103Z,99.90
2022-10-18T01:52:34.208Z,99.90
2022-10-18T01:55:43.491Z,99.90
2022-10-18T01:58:55.244Z,99.90
2022-10-18T02:02:09.805Z,99.90
2022-10-18T02:05:20.620Z,99.90
2022-10-18T02:08:29.803Z,99.90
2022-10-18T02:11:35.524Z,99.90
2022-10-18T02:14:39.585Z,99.90
2022-10-18T02:17:46.427Z,99.90
2022-10-18T02:20:50.563Z,99.90
2022-10-18T02:23:54.319Z,99.90
2022-10-18T02:26:57.460Z,99.90
2022-10-18T02:30:00.637Z,99.90
2022-10-18T02:33:12.379Z,99.90
2022-10-18T02:36:21.219Z,99.90
2022-10-18T02:39:30.499Z,99.90
2022-10-18T02:42:37.836Z,99.90
2022-10-18T02:45:41.069Z,99.90
2022-10-18T02:48:45.539Z,99.90
2022-10-18T02:51:48.639Z,99.90
2022-10-18T02:54:51.772Z,99.90
2022-10-18T02:57:54.849Z,99.90
2022-10-18T03:00:58.015Z,99.90
2022-10-18T03:04:02.595Z,99.90
2022-10-18T03:07:05.739Z,99.90
2022-10-18T03:10:09.796Z,99.90
2022-10-18T03:13:13.011Z,99.90
2022-10-18T03:16:16.083Z,99.90
2022-10-18T03:19:20.525Z,99.90
2022-10-18T03:22:25.326Z,99.90
2022-10-18T03:25:28.654Z,99.90
2022-10-18T03:28:31.831Z,99.90
2022-10-18T03:31:34.994Z,99.90
2022-10-18T03:34:39.479Z,99.90
2022-10-18T03:37:45.664Z,99.90
2022-10-18T03:40:48.829Z,99.90
2022-10-18T03:43:51.915Z,99.90
2022-10-18T03:46:55.012Z,99.90
2022-10-18T03:49:59.471Z,99.90
2022-10-18T03:53:02.592Z,99.90
2022-10-18T03:56:06.001Z,99.90
2022-10-18T03:59:09.113Z,99.90
2022-10-18T04:02:12.211Z,99.90
2022-10-18T04:05:17.067Z,99.90
2022-10-18T04:08:20.557Z,99.90
2022-10-18T04:11:23.663Z,99.90
2022-10-18T04:14:26.842Z,99.90
2022-10-18T04:17:30.280Z,99.90
2022-10-18T04:20:35.104Z,99.90
2022-10-18T04:23:38.996Z,99.90
2022-10-18T04:26:42.211Z,99.90
2022-10-18T04:29:45.310Z,99.90
2022-10-18T04:32:48.422Z,99.90
2022-10-18T04:35:54.368Z,99.90
2022-10-18T04:38:57.490Z,99.90
2022-10-18T04:42:00.672Z,99.90
2022-10-18T04:45:03.791Z,99.90
2022-10-18T04:48:07.432Z,99.90
2022-10-18T04:51:11.923Z,99.90
2022-10-18T04:54:15.034Z,99.90
2022-10-18T04:57:18.142Z,99.90
2022-10-18T05:00:21.447Z,99.90
2022-10-18T05:03:24.534Z,99.90
2022-10-18T05:06:29.029Z,99.90
2022-10-18T05:09:32.153Z,99.90
2022-10-18T05:12:35.393Z,99.90
2022-10-18T05:15:38.541Z,99.90
2022-10-18T05:18:43.147Z,99.90
2022-10-18T05:21:47.646Z,99.90
2022-10-18T05:24:50.757Z,99.90
2022-10-18T05:27:53.885Z,99.90
2022-10-18T05:30:57.219Z,99.90
2022-10-18T05:34:01.631Z,99.90
2022-10-18T05:37:07.048Z,99.90
2022-10-18T05:40:11.337Z,99.90
2022-10-18T05:43:14.471Z,99.90
2022-10-18T05:46:17.571Z,99.90
2022-10-18T05:49:20.827Z,99.90
2022-10-18T05:52:25.368Z,99.90
2022-10-18T05:55:28.507Z,99.90
2022-10-18T05:58:31.655Z,99.90
2022-10-18T06:01:34.806Z,99.90
2022-10-18T06:04:37.938Z,99.90
2022-10-18T06:07:42.467Z,99.90
2022-10-18T06:10:45.611Z,99.90
2022-10-18T06:13:50.459Z,99.90
2022-10-18T06:16:53.619Z,99.90
2022-10-18T06:19:56.766Z,99.90
2022-10-18T06:23:01.239Z,99.90
2022-10-18T06:26:06.318Z,99.90
2022-10-18T06:29:09.466Z,99.90
2022-10-18T06:32:12.598Z,99.90
2022-10-18T06:35:15.777Z,99.90
2022-10-18T06:38:20.375Z,99.90
2022-10-18T06:41:23.693Z,99.90
2022-10-18T06:44:26.928Z,99.90
2022-10-18T06:47:30.050Z,99.90
2022-10-18T06:50:33.332Z,99.90
2022-10-18T06:53:48.589Z,99.90
2022-10-18T06:57:02.826Z,99.90
2022-10-18T07:00:06.575Z,99.90
2022-10-18T07:03:09.719Z,99.90
2022-10-18T07:06:14.816Z,99.90
2022-10-18T07:09:19.338Z,99.90
2022-10-18T07:12:22.399Z,99.90
2022-10-18T07:15:25.561Z,99.90
2022-10-18T07:18:28.721Z,99.90
2022-10-18T07:21:31.836Z,99.90
2022-10-18T07:24:36.311Z,99.90
2022-10-18T07:27:40.134Z,99.90
2022-10-18T07:30:43.279Z,99.90
2022-10-18T07:33:46.387Z,99.90
2022-10-18T07:36:49.524Z,99.90
2022-10-18T07:39:53.964Z,99.90
2022-10-18T07:42:57.070Z,99.90
2022-10-18T07:46:01.982Z,99.90
2022-10-18T07:49:05.513Z,99.90
2022-10-18T07:52:08.682Z,99.90
2022-10-18T07:55:13.194Z,99.90
2022-10-18T07:58:16.318Z,99.90
2022-10-18T08:01:20.900Z,99.90
2022-10-18T08:04:24.022Z,99.90
2022-10-18T08:07:27.256Z,99.90
2022-10-18T08:10:31.765Z,99.90
2022-10-18T08:13:35.030Z,99.90
2022-10-18T08:16:38.182Z,99.30
2022-10-18T08:19:52.705Z,93.70
2022-10-18T08:23:04.936Z,84.70
2022-10-18T08:26:11.399Z,70.90
2022-10-18T08:29:24.080Z,59.80
2022-10-18T08:32:30.257Z,54.50
2022-10-18T08:35:33.748Z,49.90
2022-10-18T08:38:38.523Z,47.50
2022-10-18T08:42:13.547Z,45.50
2022-10-18T08:45:30.200Z,42.10
2022-10-18T08:48:44.636Z,39.90
2022-10-18T08:51:52.005Z,38.80
2022-10-18T08:55:02.149Z,36.20
2022-10-18T08:58:17.130Z,34.30
2022-10-18T09:01:28.948Z,31.90
2022-10-18T09:04:45.655Z,31.00
2022-10-18T09:08:16.806Z,29.60
2022-10-18T09:11:31.220Z,28.90
2022-10-18T09:14:57.873Z,28.00
2022-10-18T09:18:16.844Z,27.30
2022-10-18T09:21:25.012Z,26.90
2022-10-18T09:24:34.948Z,26.40
2022-10-18T09:27:44.645Z,25.80
2022-10-18T09:30:59.704Z,25.20
2022-10-18T09:34:09.539Z,24.60
2022-10-18T09:37:15.001Z,24.20
2022-10-18T09:40:22.613Z,23.90
2022-10-18T09:43:31.117Z,23.60
2022-10-18T09:46:39.964Z,22.90
2022-10-18T09:49:46.793Z,22.70
2022-10-18T09:53:06.404Z,22.50
2022-10-18T09:56:13.898Z,22.10
2022-10-18T09:59:39.632Z,22.00
2022-10-18T10:02:44.176Z,21.60
2022-10-18T10:05:47.632Z,21.30
2022-10-18T10:08:56.372Z,21.20
2022-10-18T10:11:59.892Z,21.30
2022-10-18T10:15:14.296Z,21.10
2022-10-18T10:18:23.067Z,21.00
2022-10-18T10:21:26.427Z,20.60
2022-10-18T10:24:48.749Z,21.30
2022-10-18T10:27:52.311Z,21.20
2022-10-18T10:30:55.569Z,20.80
2022-10-18T10:34:05.774Z,20.90
2022-10-18T10:37:28.291Z,20.80
2022-10-18T10:40:32.835Z,20.30
2022-10-18T10:43:40.133Z,20.10
2022-10-18T10:46:44.645Z,19.60
2022-10-18T10:49:49.223Z,19.30
2022-10-18T10:52:53.035Z,19.10
2022-10-18T10:55:57.352Z,19.20
2022-10-18T10:59:09.677Z,18.90
2022-10-18T11:02:21.923Z,18.70
2022-10-18T11:05:29.414Z,18.20
2022-10-18T11:08:39.125Z,17.90
2022-10-18T11:11:50.656Z,18.10
2022-10-18T11:15:00.701Z,18.00
2022-10-18T11:18:14.501Z,18.50
2022-10-18T11:21:23.281Z,18.60
2022-10-18T11:24:27.180Z,18.90
2022-10-18T11:27:36.961Z,18.90
2022-10-18T11:30:53.458Z,18.40
2022-10-18T11:34:13.800Z,18.10
2022-10-18T11:37:38.405Z,18.10
2022-10-18T11:40:52.087Z,18.40
2022-10-18T11:44:02.547Z,17.80
2022-10-18T11:47:14.726Z,17.60
2022-10-18T11:50:28.533Z,17.90
2022-10-18T11:53:42.828Z,17.90
2022-10-18T11:56:52.570Z,17.90
2022-10-18T12:00:04.895Z,18.10
2022-10-18T12:03:23.759Z,18.80
2022-10-18T12:06:31.178Z,18.90
2022-10-18T12:09:38.794Z,19.00
2022-10-18T12:12:50.848Z,19.00
2022-10-18T12:15:54.995Z,18.60
2022-10-18T12:19:00.331Z,18.30
2022-10-18T12:22:13.557Z,18.80
2022-10-18T12:25:20.114Z,19.50
2022-10-18T12:28:32.037Z,19.80
2022-10-18T12:31:40.718Z,19.50
2022-10-18T12:34:47.700Z,19.20
2022-10-18T12:38:16.651Z,19.00
2022-10-18T12:41:24.080Z,19.00
2022-10-18T12:44:32.690Z,19.10
2022-10-18T12:47:36.759Z,19.20
2022-10-18T12:50:42.879Z,19.10
2022-10-18T12:53:48.129Z,19.40
2022-10-18T12:56:52.667Z,19.50
2022-10-18T12:59:55.826Z,19.10
2022-10-18T13:03:31.131Z,19.40
2022-10-18T13:07:11.505Z,19.60
2022-10-18T13:10:36.858Z,19.20
2022-10-18T13:13:51.657Z,20.50
2022-10-18T13:17:01.051Z,20.90
2022-10-18T13:20:27.692Z,21.80
2022-10-18T13:23:41.806Z,21.70
2022-10-18T13:27:04.029Z,21.50
2022-10-18T13:30:35.356Z,21.70
2022-10-18T13:33:40.025Z,22.20
2022-10-18T13:36:43.895Z,23.40
2022-10-18T13:39:47.362Z,25.30
2022-10-18T13:42:50.517Z,27.30
2022-10-18T13:45:58.036Z,29.30
2022-10-18T13:49:16.085Z,31.60
2022-10-18T13:52:27.661Z,34.70
2022-10-18T13:55:52.086Z,37.30
2022-10-18T13:59:28.257Z,39.40
2022-10-18T14:03:37.890Z,41.50
2022-10-18T14:06:46.162Z,43.10
2022-10-18T14:09:55.205Z,45.20
2022-10-18T14:13:03.848Z,46.60
2022-10-18T14:16:12.000Z,48.10
2022-10-18T14:19:21.198Z,49.30
2022-10-18T14:22:28.801Z,50.10
2022-10-18T14:25:35.746Z,50.90
2022-10-18T14:28:58.739Z,51.80
2022-10-18T14:32:02.085Z,52.40
2022-10-18T14:35:32.036Z,53.00
2022-10-18T14:38:31.259Z,53.80
2022-10-18T14:41:35.722Z,55.00
2022-10-18T14:44:38.844Z,55.70
2022-10-18T14:47:41.945Z,56.00
2022-10-18T14:50:48.267Z,56.90
2022-10-18T14:53:53.947Z,57.50
2022-10-18T14:56:57.608Z,58.20
2022-10-18T15:00:03.529Z,58.80
2022-10-18T15:03:12.500Z,59.60
2022-10-18T15:06:19.283Z,60.40
2022-10-18T15:09:25.426Z,60.80
2022-10-18T15:12:41.099Z,61.70
2022-10-18T15:15:49.215Z,62.40
2022-10-18T15:19:07.403Z,63.70
2022-10-18T15:22:30.762Z,64.80
2022-10-18T15:25:35.997Z,66.20
2022-10-18T15:28:49.743Z,67.50
2022-10-18T15:31:53.648Z,68.30
2022-10-18T15:35:07.904Z,69.40
2022-10-18T15:38:16.970Z,70.40
2022-10-18T15:41:42.367Z,72.00
2022-10-18T15:44:50.981Z,72.90
2022-10-18T15:48:02.467Z,74.00
2022-10-18T15:51:06.891Z,75.50
2022-10-18T15:54:19.124Z,77.10
2022-10-18T15:57:26.708Z,78.60
2022-10-18T16:00:32.307Z,80.30
2022-10-18T16:03:36.639Z,81.60
2022-10-18T16:06:40.058Z,82.90
2022-10-18T16:09:43.215Z,84.60
2022-10-18T16:12:47.806Z,86.50
2022-10-18T16:15:51.100Z,87.80
2022-10-18T16:18:54.753Z,88.70
2022-10-18T16:22:02.259Z,90.00
2022-10-18T16:25:09.140Z,90.60
2022-10-18T16:28:16.926Z,91.10
2022-10-18T16:31:22.269Z,91.90
2022-10-18T16:34:26.684Z,92.70
2022-10-18T16:37:29.864Z,93.60
2022-10-18T16:40:34.616Z,94.50
2022-10-18T16:43:41.295Z,95.40
2022-10-18T16:46:45.046Z,96.30
2022-10-18T16:49:49.217Z,97.10
2022-10-18T16:52:52.379Z,98.00
2022-10-18T16:55:57.888Z,98.50
2022-10-18T16:59:02.611Z,99.00
2022-10-18T17:02:09.351Z,99.50
2022-10-18T17:05:13.372Z,99.90
2022-10-18T17:08:20.915Z,99.90
2022-10-18T17:11:26.910Z,99.90
2022-10-18T17:14:33.764Z,99.90
2022-10-18T17:17:38.116Z,99.90
2022-10-18T17:20:43.266Z,99.90
2022-10-18T17:23:46.710Z,99.90
2022-10-18T17:26:51.094Z,99.90
2022-10-18T17:29:57.755Z,99.90
2022-10-18T17:33:10.402Z,99.90
2022-10-18T17:36:14.075Z,99.90
2022-10-18T17:39:20.299Z,99.90
2022-10-18T17:42:24.272Z,99.90
2022-10-18T17:45:30.674Z,99.90
2022-10-18T17:48:34.874Z,99.90
2022-10-18T17:51:39.530Z,99.90
2022-10-18T17:54:44.761Z,99.90
2022-10-18T17:57:49.159Z,99.90
2022-10-18T18:00:54.438Z,99.90
2022-10-18T18:03:59.420Z,99.90
2022-10-18T18:07:06.001Z,99.90
2022-10-18T18:10:10.887Z,99.90
2022-10-18T18:13:18.956Z,99.90
2022-10-18T18:16:29.585Z,99.90
2022-10-18T18:19:43.177Z,99.90
2022-10-18T18:22:47.690Z,99.90
2022-10-18T18:25:58.308Z,99.90
2022-10-18T18:32:17.023Z,99.90
2022-10-18T18:35:21.511Z,99.90
2022-10-18T18:38:26.077Z,99.90
2022-10-18T18:41:31.166Z,99.90
2022-10-18T18:44:36.290Z,99.90
2022-10-18T18:47:43.339Z,99.90
2022-10-18T18:50:53.238Z,99.90
2022-10-18T18:54:00.610Z,99.90
2022-10-18T18:57:06.965Z,99.90
2022-10-18T19:00:13.861Z,99.90
2022-10-18T19:03:20.231Z,99.90
2022-10-18T19:06:27.199Z,99.90
2022-10-18T19:09:32.323Z,99.90
2022-10-18T19:12:37.054Z,99.90
2022-10-18T19:15:44.968Z,99.90
2022-10-18T19:18:56.340Z,99.90
2022-10-18T19:22:02.643Z,99.90
2022-10-18T19:25:08.402Z,99.90
2022-10-18T19:28:13.656Z,99.90
2022-10-18T19:31:18.324Z,99.90
2022-10-18T19:34:25.220Z,99.90
2022-10-18T19:37:29.603Z,99.90
2022-10-18T19:40:34.196Z,99.90
2022-10-18T19:43:39.509Z,99.90
2022-10-18T19:46:44.416Z,99.90
2022-10-18T19:49:50.953Z,99.90
2022-10-18T19:52:55.174Z,99.90
2022-10-18T19:56:00.790Z,99.90
2022-10-18T19:59:05.866Z,99.90
2022-10-18T20:02:14.610Z,99.90
2022-10-18T20:05:20.783Z,99.90
2022-10-18T20:08:24.254Z,99.90
2022-10-18T20:11:30.305Z,99.90
2022-10-18T20:14:33.644Z,99.90
2022-10-18T20:17:36.877Z,99.90
2022-10-18T20:20:44.546Z,99.90
2022-10-18T20:23:50.641Z,99.90
2022-10-18T20:26:53.774Z,99.90
2022-10-18T20:29:56.969Z,99.90
2022-10-18T20:33:00.642Z,99.90
2022-10-18T20:36:07.418Z,99.90
2022-10-18T20:39:11.216Z,99.90
2022-10-18T20:42:14.379Z,99.90
2022-10-18T20:45:17.568Z,99.90
2022-10-18T20:48:21.156Z,99.90
2022-10-18T20:51:26.021Z,99.90
2022-10-18T20:54:29.088Z,99.90
2022-10-18T20:57:34.299Z,99.90
2022-10-18T21:00:39.697Z,99.90
2022-10-18T21:03:44.247Z,99.90
2022-10-18T21:06:48.750Z,99.90
2022-10-18T21:09:51.854Z,99.90
2022-10-18T21:12:54.959Z,99.90
2022-10-18T21:15:59.134Z,99.90
2022-10-18T21:19:05.549Z,99.90
2022-10-18T21:22:10.035Z,99.90
2022-10-18T21:25:13.103Z,99.90
2022-10-18T21:28:16.949Z,99.90
2022-10-18T21:31:22.409Z,99.90
2022-10-18T21:34:26.108Z,99.90
2022-10-18T21:37:30.588Z,99.90
2022-10-18T21:40:36.159Z,99.90
2022-10-18T21:43:41.925Z,99.90
2022-10-18T21:46:46.709Z,99.90
2022-10-18T21:49:49.902Z,99.90
2022-10-18T21:52:54.415Z,99.90
2022-10-18T21:55:57.520Z,99.90
2022-10-18T21:59:00.720Z,99.90
2022-10-18T22:02:04.022Z,99.90
2022-10-18T22:05:09.834Z,99.90
2022-10-18T22:08:16.719Z,99.90
2022-10-18T22:11:22.975Z,99.90
2022-10-18T22:14:26.187Z,99.90
2022-10-18T22:17:29.295Z,99.90
2022-10-18T22:20:32.433Z,99.90
2022-10-18T22:23:39.459Z,99.90
2022-10-18T22:26:43.929Z,99.90
2022-10-18T22:29:47.057Z,99.90
2022-10-18T22:32:50.177Z,99.90
2022-10-18T22:35:53.304Z,99.90
2022-10-18T22:38:57.875Z,99.90
2022-10-18T22:42:01.083Z,99.90
2022-10-18T22:45:04.420Z,99.90
2022-10-18T22:48:08.506Z,99.90
2022-10-18T22:51:12.519Z,99.90
2022-10-18T22:54:17.177Z,99.90
2022-10-18T22:57:20.331Z,99.90
2022-10-18T23:00:23.532Z,99.90
2022-10-18T23:03:26.690Z,99.90
2022-10-18T23:06:31.732Z,99.90
2022-10-18T23:09:36.596Z,99.90
2022-10-18T23:12:39.723Z,99.90
2022-10-18T23:15:42.831Z,99.90
2022-10-18T23:18:49.935Z,99.90
2022-10-18T23:21:53.516Z,99.90
2022-10-18T23:24:57.978Z,99.90
2022-10-18T23:28:01.250Z,99.90
2022-10-18T23:31:09.473Z,99.90
2022-10-18T23:34:12.522Z,99.90
2022-10-18T23:37:15.689Z,99.90
2022-10-18T23:40:20.360Z,99.90
2022-10-18T23:43:23.461Z,99.90
2022-10-18T23:46:26.898Z,99.90
2022-10-18T23:49:30.082Z,99.90
2022-10-18T23:52:33.207Z,99.90
2022-10-18T23:55:37.699Z,99.90
2022-10-18T23:58:41.105Z,99.90
